sensor_id;sensor_type;location;lat;lon;timestamp;P1;durP1;ratioP1;P2;durP2;ratioP2
66402;SDS011;53212;52.112;5.144;2022-08-19T01:20:58;3.50;;;3.20;;
66402;SDS011;53212;52.112;5.144;2022-08-19T01:23:30;3.40;;;3.10;;
66402;SDS011;53212;52.112;5.144;2022-08-19T01:26:19;4.00;;;3.40;;
66402;SDS011;53212;52.112;5.144;2022-08-19T01:28:48;3.70;;;3.40;;
66402;SDS011;53212;52.112;5.144;2022-08-19T01:31:18;7.40;;;3.30;;
66402;SDS011;53212;52.112;5.144;2022-08-19T01:33:47;2.90;;;2.70;;
66402;SDS011;53212;52.112;5.144;2022-08-19T01:36:21;3.40;;;3.10;;
66402;SDS011;53212;52.112;5.144;2022-08-19T01:38:57;4.30;;;3.30;;
66402;SDS011;53212;52.112;5.144;2022-08-19T01:41:26;5.10;;;3.00;;
66402;SDS011;53212;52.112;5.144;2022-08-19T01:43:53;7.40;;;3.60;;
66402;SDS011;53212;52.112;5.144;2022-08-19T01:46:21;4.90;;;3.50;;
66402;SDS011;53212;52.112;5.144;2022-08-19T01:48:49;4.30;;;3.40;;
66402;SDS011;53212;52.112;5.144;2022-08-19T01:51:19;3.80;;;3.50;;
66402;SDS011;53212;52.112;5.144;2022-08-19T01:53:47;3.80;;;3.50;;
66402;SDS011;53212;52.112;5.144;2022-08-19T01:56:14;4.40;;;3.30;;
66402;SDS011;53212;52.112;5.144;2022-08-19T01:58:41;7.60;;;4.00;;
66402;SDS011;53212;52.112;5.144;2022-08-19T02:01:12;4.90;;;4.50;;
66402;SDS011;53212;52.112;5.144;2022-08-19T02:03:41;5.60;;;4.40;;
66402;SDS011;53212;52.112;5.144;2022-08-19T02:06:06;4.90;;;4.40;;
66402;SDS011;53212;52.112;5.144;2022-08-19T02:08:36;5.50;;;4.90;;
66402;SDS011;53212;52.112;5.144;2022-08-19T02:13:30;4.50;;;4.00;;
66402;SDS011;53212;52.112;5.144;2022-08-19T02:15:59;5.40;;;4.90;;
66402;SDS011;53212;52.112;5.144;2022-08-19T02:18:25;5.60;;;4.30;;
66402;SDS011;53212;52.112;5.144;2022-08-19T02:20:51;5.60;;;5.10;;
66402;SDS011;53212;52.112;5.144;2022-08-19T02:23:21;7.30;;;5.00;;
66402;SDS011;53212;52.112;5.144;2022-08-19T02:25:47;5.90;;;5.00;;
66402;SDS011;53212;52.112;5.144;2022-08-19T02:28:17;5.80;;;5.10;;
66402;SDS011;53212;52.112;5.144;2022-08-19T02:30:43;6.30;;;5.30;;
66402;SDS011;53212;52.112;5.144;2022-08-19T02:33:09;6.20;;;5.60;;
66402;SDS011;53212;52.112;5.144;2022-08-19T02:35:35;8.80;;;7.00;;
66402;SDS011;53212;52.112;5.144;2022-08-19T02:38:01;8.10;;;5.90;;
66402;SDS011;53212;52.112;5.144;2022-08-19T02:40:52;6.00;;;5.50;;
66402;SDS011;53212;52.112;5.144;2022-08-19T02:43:20;6.50;;;5.90;;
66402;SDS011;53212;52.112;5.144;2022-08-19T02:45:53;8.70;;;7.20;;
66402;SDS011;53212;52.112;5.144;2022-08-19T02:48:20;9.60;;;6.80;;
66402;SDS011;53212;52.112;5.144;2022-08-19T02:50:49;7.10;;;6.40;;
66402;SDS011;53212;52.112;5.144;2022-08-19T02:53:26;8.70;;;7.00;;
66402;SDS011;53212;52.112;5.144;2022-08-19T02:55:53;10.30;;;7.20;;
66402;SDS011;53212;52.112;5.144;2022-08-19T02:58:20;7.70;;;6.80;;
66402;SDS011;53212;52.112;5.144;2022-08-19T03:00:50;8.70;;;7.80;;
66402;SDS011;53212;52.112;5.144;2022-08-19T03:03:18;10.00;;;7.10;;
66402;SDS011;53212;52.112;5.144;2022-08-19T03:05:45;8.00;;;7.10;;
66402;SDS011;53212;52.112;5.144;2022-08-19T03:08:14;6.10;;;5.50;;
66402;SDS011;53212;52.112;5.144;2022-08-19T03:10:43;8.60;;;6.90;;
66402;SDS011;53212;52.112;5.144;2022-08-19T03:13:17;8.40;;;7.00;;
66402;SDS011;53212;52.112;5.144;2022-08-19T03:15:50;7.30;;;6.00;;
66402;SDS011;53212;52.112;5.144;2022-08-19T03:18:16;9.10;;;6.40;;
66402;SDS011;53212;52.112;5.144;2022-08-19T03:20:43;10.10;;;6.10;;
66402;SDS011;53212;52.112;5.144;2022-08-19T03:23:15;7.70;;;6.90;;
66402;SDS011;53212;52.112;5.144;2022-08-19T03:25:46;8.40;;;6.00;;
66402;SDS011;53212;52.112;5.144;2022-08-19T03:28:17;7.70;;;5.80;;
66402;SDS011;53212;52.112;5.144;2022-08-19T03:30:53;7.40;;;5.90;;
66402;SDS011;53212;52.112;5.144;2022-08-19T03:33:22;6.40;;;5.60;;
66402;SDS011;53212;52.112;5.144;2022-08-19T03:36:01;6.40;;;5.70;;
66402;SDS011;53212;52.112;5.144;2022-08-19T03:38:29;7.80;;;6.10;;
66402;SDS011;53212;52.112;5.144;2022-08-19T03:40:57;7.70;;;6.30;;
66402;SDS011;53212;52.112;5.144;2022-08-19T03:43:35;11.20;;;7.90;;
66402;SDS011;53212;52.112;5.144;2022-08-19T03:46:24;9.70;;;8.30;;
66402;SDS011;53212;52.112;5.144;2022-08-19T03:49:01;9.70;;;8.30;;
66402;SDS011;53212;52.112;5.144;2022-08-19T03:51:35;11.10;;;8.60;;
66402;SDS011;53212;52.112;5.144;2022-08-19T03:54:13;12.60;;;9.80;;
66402;SDS011;53212;52.112;5.144;2022-08-19T03:56:44;12.50;;;9.30;;
66402;SDS011;53212;52.112;5.144;2022-08-19T03:59:28;12.30;;;9.00;;
66402;SDS011;53212;52.112;5.144;2022-08-19T04:01:58;11.20;;;9.90;;
66402;SDS011;53212;52.112;5.144;2022-08-19T04:04:26;12.10;;;10.10;;
66402;SDS011;53212;52.112;5.144;2022-08-19T04:06:55;11.70;;;9.50;;
66402;SDS011;53212;52.112;5.144;2022-08-19T04:09:25;9.70;;;8.20;;
66402;SDS011;53212;52.112;5.144;2022-08-19T04:11:55;11.60;;;9.50;;
66402;SDS011;53212;52.112;5.144;2022-08-19T04:14:28;9.70;;;8.60;;
66402;SDS011;53212;52.112;5.144;2022-08-19T04:16:59;10.80;;;8.60;;
66402;SDS011;53212;52.112;5.144;2022-08-19T04:19:32;8.00;;;7.20;;
66402;SDS011;53212;52.112;5.144;2022-08-19T04:22:04;9.80;;;8.70;;
66402;SDS011;53212;52.112;5.144;2022-08-19T04:24:30;10.10;;;8.40;;
66402;SDS011;53212;52.112;5.144;2022-08-19T04:26:59;10.40;;;8.50;;
66402;SDS011;53212;52.112;5.144;2022-08-19T04:29:33;9.60;;;7.80;;
66402;SDS011;53212;52.112;5.144;2022-08-19T04:32:00;10.40;;;9.00;;
66402;SDS011;53212;52.112;5.144;2022-08-19T04:34:28;11.90;;;9.50;;
66402;SDS011;53212;52.112;5.144;2022-08-19T04:36:56;12.50;;;10.20;;
66402;SDS011;53212;52.112;5.144;2022-08-19T04:39:28;11.10;;;9.80;;
66402;SDS011;53212;52.112;5.144;2022-08-19T04:42:21;15.60;;;10.40;;
66402;SDS011;53212;52.112;5.144;2022-08-19T04:45:07;20.60;;;12.90;;
66402;SDS011;53212;52.112;5.144;2022-08-19T04:47:40;19.90;;;13.50;;
66402;SDS011;53212;52.112;5.144;2022-08-19T04:50:09;21.00;;;14.50;;
66402;SDS011;53212;52.112;5.144;2022-08-19T04:52:38;17.20;;;13.50;;
66402;SDS011;53212;52.112;5.144;2022-08-19T04:55:11;18.20;;;14.30;;
66402;SDS011;53212;52.112;5.144;2022-08-19T04:57:40;21.70;;;15.10;;
66402;SDS011;53212;52.112;5.144;2022-08-19T05:00:09;20.30;;;14.60;;
66402;SDS011;53212;52.112;5.144;2022-08-19T05:02:38;22.80;;;16.50;;
66402;SDS011;53212;52.112;5.144;2022-08-19T05:05:05;22.90;;;17.70;;
66402;SDS011;53212;52.112;5.144;2022-08-19T05:07:35;21.70;;;16.30;;
66402;SDS011;53212;52.112;5.144;2022-08-19T05:10:05;21.40;;;16.60;;
66402;SDS011;53212;52.112;5.144;2022-08-19T05:12:34;21.00;;;14.90;;
66402;SDS011;53212;52.112;5.144;2022-08-19T05:18:57;29.20;;;17.20;;
66402;SDS011;53212;52.112;5.144;2022-08-19T05:21:42;37.10;;;23.20;;
66402;SDS011;53212;52.112;5.144;2022-08-19T05:24:32;40.70;;;23.40;;
66402;SDS011;53212;52.112;5.144;2022-08-19T05:30:54;47.00;;;27.00;;
66402;SDS011;53212;52.112;5.144;2022-08-19T05:33:39;41.30;;;24.80;;
66402;SDS011;53212;52.112;5.144;2022-08-19T05:36:15;40.50;;;25.30;;
66402;SDS011;53212;52.112;5.144;2022-08-19T05:38:44;43.20;;;25.80;;
66402;SDS011;53212;52.112;5.144;2022-08-19T05:41:15;37.10;;;23.50;;
66402;SDS011;53212;52.112;5.144;2022-08-19T05:43:54;41.90;;;25.70;;
66402;SDS011;53212;52.112;5.144;2022-08-19T05:46:23;44.60;;;27.60;;
66402;SDS011;53212;52.112;5.144;2022-08-19T05:48:55;35.40;;;23.00;;
66402;SDS011;53212;52.112;5.144;2022-08-19T05:51:24;44.10;;;27.10;;
66402;SDS011;53212;52.112;5.144;2022-08-19T05:53:56;41.10;;;25.90;;
66402;SDS011;53212;52.112;5.144;2022-08-19T05:56:29;42.90;;;27.00;;
66402;SDS011;53212;52.112;5.144;2022-08-19T05:58:58;40.20;;;25.10;;
66402;SDS011;53212;52.112;5.144;2022-08-19T06:01:32;39.30;;;26.10;;
66402;SDS011;53212;52.112;5.144;2022-08-19T06:04:01;34.30;;;24.20;;
66402;SDS011;53212;52.112;5.144;2022-08-19T06:06:42;39.30;;;26.40;;
66402;SDS011;53212;52.112;5.144;2022-08-19T06:09:18;43.10;;;26.50;;
66402;SDS011;53212;52.112;5.144;2022-08-19T06:11:59;46.30;;;27.10;;
66402;SDS011;53212;52.112;5.144;2022-08-19T06:14:33;38.00;;;22.50;;
66402;SDS011;53212;52.112;5.144;2022-08-19T06:17:02;38.30;;;24.00;;
66402;SDS011;53212;52.112;5.144;2022-08-19T06:19:50;55.70;;;29.10;;
66402;SDS011;53212;52.112;5.144;2022-08-19T06:22:19;42.90;;;25.00;;
66402;SDS011;53212;52.112;5.144;2022-08-19T06:24:51;56.30;;;30.10;;
66402;SDS011;53212;52.112;5.144;2022-08-19T06:27:25;46.00;;;24.30;;
66402;SDS011;53212;52.112;5.144;2022-08-19T06:29:51;59.50;;;30.80;;
66402;SDS011;53212;52.112;5.144;2022-08-19T06:32:27;55.00;;;30.60;;
66402;SDS011;53212;52.112;5.144;2022-08-19T06:34:55;61.40;;;32.60;;
66402;SDS011;53212;52.112;5.144;2022-08-19T06:37:24;66.80;;;32.60;;
66402;SDS011;53212;52.112;5.144;2022-08-19T06:39:56;46.20;;;25.50;;
66402;SDS011;53212;52.112;5.144;2022-08-19T06:42:34;60.00;;;32.50;;
66402;SDS011;53212;52.112;5.144;2022-08-19T06:45:08;62.70;;;32.60;;
66402;SDS011;53212;52.112;5.144;2022-08-19T06:47:40;54.20;;;31.00;;
66402;SDS011;53212;52.112;5.144;2022-08-19T06:50:13;55.80;;;31.10;;
66402;SDS011;53212;52.112;5.144;2022-08-19T06:52:39;58.10;;;32.60;;
66402;SDS011;53212;52.112;5.144;2022-08-19T06:55:06;59.50;;;31.60;;
66402;SDS011;53212;52.112;5.144;2022-08-19T06:57:49;53.10;;;29.70;;
66402;SDS011;53212;52.112;5.144;2022-08-19T07:00:18;53.40;;;31.10;;
66402;SDS011;53212;52.112;5.144;2022-08-19T07:02:44;55.30;;;30.70;;
66402;SDS011;53212;52.112;5.144;2022-08-19T07:05:12;58.40;;;31.00;;
66402;SDS011;53212;52.112;5.144;2022-08-19T07:07:43;56.40;;;32.00;;
66402;SDS011;53212;52.112;5.144;2022-08-19T07:10:09;49.30;;;30.60;;
66402;SDS011;53212;52.112;5.144;2022-08-19T07:12:37;52.60;;;30.10;;
66402;SDS011;53212;52.112;5.144;2022-08-19T07:15:04;52.60;;;30.80;;
66402;SDS011;53212;52.112;5.144;2022-08-19T07:17:31;52.20;;;31.70;;
66402;SDS011;53212;52.112;5.144;2022-08-19T07:19:58;46.20;;;29.50;;
66402;SDS011;53212;52.112;5.144;2022-08-19T07:22:24;51.10;;;31.50;;
66402;SDS011;53212;52.112;5.144;2022-08-19T07:24:58;53.60;;;32.80;;
66402;SDS011;53212;52.112;5.144;2022-08-19T07:27:30;51.80;;;32.70;;
66402;SDS011;53212;52.112;5.144;2022-08-19T07:30:14;43.40;;;28.30;;
66402;SDS011;53212;52.112;5.144;2022-08-19T07:32:50;45.50;;;30.70;;
66402;SDS011;53212;52.112;5.144;2022-08-19T07:35:25;48.80;;;32.10;;
66402;SDS011;53212;52.112;5.144;2022-08-19T07:37:53;51.50;;;31.50;;
66402;SDS011;53212;52.112;5.144;2022-08-19T07:40:25;49.60;;;31.20;;
66402;SDS011;53212;52.112;5.144;2022-08-19T07:42:50;47.10;;;30.60;;
66402;SDS011;53212;52.112;5.144;2022-08-19T07:48:24;45.80;;;30.30;;
66402;SDS011;53212;52.112;5.144;2022-08-19T07:54:35;47.20;;;28.00;;
66402;SDS011;53212;52.112;5.144;2022-08-19T07:57:23;46.20;;;28.80;;
66402;SDS011;53212;52.112;5.144;2022-08-19T07:59:57;43.10;;;28.00;;
66402;SDS011;53212;52.112;5.144;2022-08-19T08:06:11;44.20;;;28.20;;
66402;SDS011;53212;52.112;5.144;2022-08-19T08:09:11;43.40;;;28.70;;
66402;SDS011;53212;52.112;5.144;2022-08-19T08:12:05;43.90;;;28.70;;
66402;SDS011;53212;52.112;5.144;2022-08-19T08:15:16;46.30;;;30.80;;
66402;SDS011;53212;52.112;5.144;2022-08-19T08:17:45;44.60;;;29.20;;
66402;SDS011;53212;52.112;5.144;2022-08-19T08:20:12;42.90;;;29.90;;
66402;SDS011;53212;52.112;5.144;2022-08-19T08:22:46;47.00;;;30.30;;
66402;SDS011;53212;52.112;5.144;2022-08-19T08:25:38;44.80;;;29.30;;
66402;SDS011;53212;52.112;5.144;2022-08-19T08:28:33;40.20;;;29.10;;
66402;SDS011;53212;52.112;5.144;2022-08-19T08:31:06;38.30;;;26.00;;
66402;SDS011;53212;52.112;5.144;2022-08-19T08:36:08;33.50;;;26.40;;
66402;SDS011;53212;52.112;5.144;2022-08-19T08:42:43;31.30;;;23.50;;
66402;SDS011;53212;52.112;5.144;2022-08-19T08:45:19;35.60;;;26.70;;
66402;SDS011;53212;52.112;5.144;2022-08-19T08:48:02;34.20;;;23.40;;
66402;SDS011;53212;52.112;5.144;2022-08-19T09:02:45;24.60;;;18.20;;
66402;SDS011;53212;52.112;5.144;2022-08-19T09:15:25;27.00;;;19.80;;
66402;SDS011;53212;52.112;5.144;2022-08-19T09:18:07;27.10;;;17.60;;
66402;SDS011;53212;52.112;5.144;2022-08-19T09:24:30;23.30;;;17.30;;
66402;SDS011;53212;52.112;5.144;2022-08-19T09:27:12;22.90;;;17.40;;
66402;SDS011;53212;52.112;5.144;2022-08-19T09:33:52;30.60;;;19.50;;
66402;SDS011;53212;52.112;5.144;2022-08-19T09:40:10;24.50;;;18.60;;
66402;SDS011;53212;52.112;5.144;2022-08-19T09:42:46;26.40;;;18.10;;
66402;SDS011;53212;52.112;5.144;2022-08-19T09:45:19;26.50;;;19.00;;
66402;SDS011;53212;52.112;5.144;2022-08-19T09:48:14;21.00;;;17.60;;
66402;SDS011;53212;52.112;5.144;2022-08-19T09:51:02;26.40;;;19.10;;
66402;SDS011;53212;52.112;5.144;2022-08-19T09:53:35;23.70;;;18.10;;
66402;SDS011;53212;52.112;5.144;2022-08-19T10:00:15;19.10;;;16.20;;
66402;SDS011;53212;52.112;5.144;2022-08-19T10:03:39;23.10;;;17.20;;
66402;SDS011;53212;52.112;5.144;2022-08-19T10:11:02;24.50;;;17.60;;
66402;SDS011;53212;52.112;5.144;2022-08-19T10:14:15;20.70;;;18.00;;
66402;SDS011;53212;52.112;5.144;2022-08-19T10:16:55;23.50;;;18.30;;
66402;SDS011;53212;52.112;5.144;2022-08-19T10:19:25;17.50;;;13.80;;
66402;SDS011;53212;52.112;5.144;2022-08-19T10:22:41;19.70;;;16.30;;
66402;SDS011;53212;52.112;5.144;2022-08-19T10:25:27;25.40;;;18.00;;
66402;SDS011;53212;52.112;5.144;2022-08-19T10:28:40;20.30;;;16.10;;
66402;SDS011;53212;52.112;5.144;2022-08-19T10:31:39;21.90;;;14.80;;
66402;SDS011;53212;52.112;5.144;2022-08-19T10:38:54;19.60;;;16.20;;
66402;SDS011;53212;52.112;5.144;2022-08-19T10:45:05;20.40;;;14.30;;
66402;SDS011;53212;52.112;5.144;2022-08-19T10:48:30;18.40;;;15.80;;
66402;SDS011;53212;52.112;5.144;2022-08-19T11:09:47;23.50;;;17.30;;
66402;SDS011;53212;52.112;5.144;2022-08-19T11:13:23;27.50;;;17.60;;
66402;SDS011;53212;52.112;5.144;2022-08-19T11:16:21;22.60;;;16.20;;
66402;SDS011;53212;52.112;5.144;2022-08-19T11:27:50;20.50;;;15.30;;
66402;SDS011;53212;52.112;5.144;2022-08-19T11:34:39;19.80;;;15.10;;
66402;SDS011;53212;52.112;5.144;2022-08-19T11:56:20;18.40;;;13.20;;
66402;SDS011;53212;52.112;5.144;2022-08-19T12:43:31;12.10;;;6.60;;
66402;SDS011;53212;52.112;5.144;2022-08-19T12:46:56;9.30;;;6.00;;
66402;SDS011;53212;52.112;5.144;2022-08-19T12:54:34;5.90;;;4.60;;
66402;SDS011;53212;52.112;5.144;2022-08-19T13:01:56;7.50;;;5.80;;
66402;SDS011;53212;52.112;5.144;2022-08-19T13:05:58;8.40;;;6.00;;
66402;SDS011;53212;52.112;5.144;2022-08-19T13:08:50;8.10;;;4.70;;
66402;SDS011;53212;52.112;5.144;2022-08-19T13:15:46;8.20;;;5.00;;
66402;SDS011;53212;52.112;5.144;2022-08-19T13:19:01;7.20;;;3.70;;
66402;SDS011;53212;52.112;5.144;2022-08-19T13:26:15;10.00;;;5.20;;
